Time;durP1;ratioP1;P1;durP2;ratioP2;P2;SDS_P1;SDS_P2;PMS_P1;PMS_P2;Temp;Humidity;BMP_temperature;BMP_pressure;BME280_temperature;BME280_humidity;BME280_pressure;Samples;Min_cycle;Max_cycle;Signal;HPM_P1;HPM_P2
2021/12/12 00:00:27;;;;;;;7.87;5.87;;;;;;;;;;5020970;28;20227;-80
2021/12/12 00:02:58;;;;;;;8.27;5.53;;;;;;;;;;5015684;28;20294;-80
2021/12/12 00:05:28;;;;;;;10.70;6.00;;;;;;;;;;5022076;28;20225;-81
2021/12/12 00:07:55;;;;;;;9.23;5.80;;;;;;;;;;5020058;28;20226;-81
2021/12/12 00:10:25;;;;;;;10.67;5.80;;;;;;;;;;5004528;28;20230;-81
2021/12/12 00:12:55;;;;;;;8.23;5.90;;;;;;;;;;5007979;28;20214;-81
2021/12/12 00:15:23;;;;;;;8.03;6.20;;;;;;;;;;5004896;28;20203;-81
2021/12/12 00:17:50;;;;;;;7.80;6.00;;;;;;;;;;5008231;28;20198;-80
2021/12/12 00:20:18;;;;;;;10.97;6.00;;;;;;;;;;5003197;28;20319;-80
2021/12/12 00:22:46;;;;;;;8.03;6.00;;;;;;;;;;5007479;28;20233;-80
2021/12/12 00:25:14;;;;;;;9.13;6.00;;;;;;;;;;5015746;28;20246;-80
2021/12/12 00:27:41;;;;;;;7.77;5.97;;;;;;;;;;5014378;28;20306;-80
2021/12/12 00:30:11;;;;;;;9.03;6.57;;;;;;;;;;5020368;28;20276;-80
2021/12/12 00:32:40;;;;;;;5.97;5.17;;;;;;;;;;5016576;28;20245;-80
2021/12/12 00:35:10;;;;;;;9.57;5.90;;;;;;;;;;5021582;28;20210;-80
2021/12/12 00:37:38;;;;;;;7.07;5.43;;;;;;;;;;5021040;28;20210;-80
2021/12/12 00:40:08;;;;;;;6.87;5.83;;;;;;;;;;5016842;28;20235;-80
2021/12/12 00:42:39;;;;;;;7.30;5.77;;;;;;;;;;5011304;28;20241;-80
2021/12/12 00:45:07;;;;;;;7.37;6.10;;;;;;;;;;5003472;28;20261;-80
2021/12/12 00:47:36;;;;;;;6.67;6.07;;;;;;;;;;5018015;28;20199;-80
2021/12/12 00:50:05;;;;;;;6.87;6.17;;;;;;;;;;5004360;28;20257;-80
2021/12/12 00:52:32;;;;;;;6.40;4.97;;;;;;;;;;5016104;28;20282;-80
2021/12/12 00:55:00;;;;;;;7.10;5.50;;;;;;;;;;5016394;28;20215;-80
2021/12/12 00:57:27;;;;;;;8.60;5.10;;;;;;;;;;5022291;28;20266;-80
2021/12/12 00:59:55;;;;;;;8.67;5.13;;;;;;;;;;5020122;28;20227;-80
2021/12/12 01:02:23;;;;;;;6.70;4.97;;;;;;;;;;5016770;28;20213;-80
2021/12/12 01:04:54;;;;;;;7.80;5.43;;;;;;;;;;5006021;28;20312;-80
2021/12/12 01:07:26;;;;;;;5.80;5.20;;;;;;;;;;5008567;28;20223;-80
2021/12/12 01:09:55;;;;;;;5.53;4.93;;;;;;;;;;5007788;28;20219;-80
2021/12/12 01:12:25;;;;;;;8.13;5.97;;;;;;;;;;5007024;28;20235;-80
2021/12/12 01:14:55;;;;;;;7.07;5.20;;;;;;;;;;5005183;28;20244;-80
2021/12/12 01:17:24;;;;;;;8.03;5.00;;;;;;;;;;5019583;28;20246;-80
2021/12/12 01:19:57;;;;;;;6.70;5.00;;;;;;;;;;5023668;28;20648;-80
2021/12/12 01:22:28;;;;;;;6.60;5.40;;;;;;;;;;5023143;28;20242;-80
2021/12/12 01:24:57;;;;;;;6.27;4.97;;;;;;;;;;5020622;28;20740;-80
2021/12/12 01:27:24;;;;;;;5.43;4.23;;;;;;;;;;5022562;28;20233;-80
2021/12/12 01:29:52;;;;;;;7.50;5.73;;;;;;;;;;5019811;28;20305;-81
2021/12/12 01:32:25;;;;;;;8.27;6.07;;;;;;;;;;5016036;28;20300;-80
2021/12/12 01:34:56;;;;;;;8.30;6.07;;;;;;;;;;5018100;28;20266;-80
2021/12/12 01:37:37;;;;;;;7.43;5.67;;;;;;;;;;5010616;28;20270;-80
2021/12/12 01:40:08;;;;;;;6.67;5.10;;;;;;;;;;5018387;28;20233;-80
2021/12/12 01:42:38;;;;;;;7.00;5.13;;;;;;;;;;5046616;23;20231;-78
2021/12/12 01:45:08;;;;;;;6.50;4.70;;;;;;;;;;4977498;28;20247;-80
2021/12/12 01:47:37;;;;;;;6.93;5.07;;;;;;;;;;4985109;28;20687;-80
2021/12/12 01:50:13;;;;;;;7.20;5.10;;;;;;;;;;4985178;28;20208;-80
2021/12/12 01:52:43;;;;;;;5.50;5.00;;;;;;;;;;4986745;28;20231;-80
2021/12/12 01:55:13;;;;;;;5.13;4.40;;;;;;;;;;4976604;28;20200;-81
2021/12/12 01:57:41;;;;;;;7.50;4.90;;;;;;;;;;4986097;28;20274;-81
2021/12/12 02:00:12;;;;;;;5.40;4.20;;;;;;;;;;4978418;28;20215;-81
2021/12/12 02:02:40;;;;;;;5.73;4.67;;;;;;;;;;4980436;28;20220;-80
2021/12/12 02:05:14;;;;;;;7.33;4.30;;;;;;;;;;4985326;28;20234;-80
2021/12/12 02:07:47;;;;;;;6.50;4.17;;;;;;;;;;4986186;28;20204;-80
2021/12/12 02:10:17;;;;;;;4.77;4.23;;;;;;;;;;4984340;28;20216;-80
2021/12/12 02:12:45;;;;;;;7.60;4.60;;;;;;;;;;4985377;28;20295;-80
2021/12/12 02:15:13;;;;;;;5.30;4.00;;;;;;;;;;4985198;28;20223;-81
2021/12/12 02:17:44;;;;;;;7.67;4.73;;;;;;;;;;4986847;28;20212;-81
2021/12/12 02:20:19;;;;;;;5.20;4.00;;;;;;;;;;4974143;28;20207;-80
2021/12/12 02:23:02;;;;;;;4.37;3.97;;;;;;;;;;4987825;28;20227;-80
2021/12/12 02:36:34;;;;;;;5.10;3.73;;;;;;;;;;4984428;28;20210;-81
2021/12/12 02:39:05;;;;;;;6.90;4.43;;;;;;;;;;4982809;28;20200;-80
2021/12/12 02:41:32;;;;;;;6.80;4.40;;;;;;;;;;4980896;28;20204;-80
2021/12/12 02:44:05;;;;;;;6.30;5.00;;;;;;;;;;4980947;28;20231;-80
2021/12/12 02:46:35;;;;;;;5.53;4.57;;;;;;;;;;4980301;28;20219;-80
2021/12/12 02:49:07;;;;;;;7.47;5.73;;;;;;;;;;4986669;28;20234;-80
2021/12/12 02:51:37;;;;;;;7.03;5.60;;;;;;;;;;4989473;28;20196;-81
2021/12/12 02:54:07;;;;;;;8.20;5.43;;;;;;;;;;4991042;28;20293;-80
2021/12/12 02:56:35;;;;;;;6.90;5.10;;;;;;;;;;4992979;28;20227;-81
2021/12/12 02:59:06;;;;;;;5.30;4.63;;;;;;;;;;4988050;28;20206;-80
2021/12/12 03:01:40;;;;;;;8.03;5.30;;;;;;;;;;4989028;28;20211;-83
2021/12/12 03:04:09;;;;;;;5.20;4.20;;;;;;;;;;4986424;28;20263;-80
2021/12/12 03:06:38;;;;;;;6.07;4.03;;;;;;;;;;4989624;28;20215;-81
2021/12/12 03:09:08;;;;;;;5.40;3.83;;;;;;;;;;4986565;28;20203;-79
2021/12/12 03:11:35;;;;;;;4.10;3.30;;;;;;;;;;4984503;28;20212;-81
2021/12/12 03:14:02;;;;;;;4.20;3.47;;;;;;;;;;4980458;28;20737;-81
2021/12/12 03:16:31;;;;;;;4.67;3.37;;;;;;;;;;4980200;28;20195;-81
2021/12/12 03:18:58;;;;;;;5.03;2.80;;;;;;;;;;4979193;28;20267;-82
2021/12/12 03:21:31;;;;;;;3.57;3.23;;;;;;;;;;4979778;28;20226;-80
2021/12/12 03:24:00;;;;;;;4.77;3.03;;;;;;;;;;4976290;28;20219;-81
2021/12/12 03:26:28;;;;;;;3.67;2.90;;;;;;;;;;4988566;28;20250;-81
2021/12/12 03:28:57;;;;;;;4.50;3.57;;;;;;;;;;4993538;28;20208;-79
2021/12/12 03:31:26;;;;;;;3.83;3.53;;;;;;;;;;4989367;28;20207;-79
2021/12/12 03:33:54;;;;;;;4.17;3.77;;;;;;;;;;4991750;28;20231;-82
2021/12/12 03:36:22;;;;;;;4.77;4.27;;;;;;;;;;4995782;28;20208;-79
2021/12/12 03:38:53;;;;;;;6.07;4.57;;;;;;;;;;4988590;28;20208;-82
2021/12/12 03:41:22;;;;;;;4.83;3.70;;;;;;;;;;4979052;28;20196;-79
2021/12/12 03:43:54;;;;;;;4.73;4.10;;;;;;;;;;4976844;28;20247;-79
2021/12/12 03:46:21;;;;;;;4.60;3.70;;;;;;;;;;4971159;28;20588;-79
2021/12/12 03:48:52;;;;;;;4.13;3.73;;;;;;;;;;4977166;28;20234;-80
2021/12/12 03:51:21;;;;;;;5.67;3.90;;;;;;;;;;4975967;28;20211;-80
2021/12/12 03:53:49;;;;;;;5.40;4.00;;;;;;;;;;4975948;28;20311;-79
2021/12/12 03:56:16;;;;;;;4.97;3.97;;;;;;;;;;4976385;28;20246;-79
2021/12/12 03:58:44;;;;;;;4.43;3.57;;;;;;;;;;4975661;28;20192;-79
2021/12/12 04:01:15;;;;;;;5.00;4.03;;;;;;;;;;4974098;28;20272;-79
2021/12/12 04:03:45;;;;;;;4.13;3.73;;;;;;;;;;4974192;28;20287;-80
2021/12/12 04:06:29;;;;;;;6.03;4.10;;;;;;;;;;4979059;28;20220;-82
2021/12/12 04:08:59;;;;;;;5.23;3.90;;;;;;;;;;4988958;28;20693;-80
2021/12/12 04:11:31;;;;;;;5.50;4.20;;;;;;;;;;4980893;28;20287;-81
2021/12/12 04:14:07;;;;;;;6.03;3.73;;;;;;;;;;4979417;28;20219;-80
2021/12/12 04:16:39;;;;;;;5.03;4.03;;;;;;;;;;4975963;28;20203;-80
2021/12/12 04:19:09;;;;;;;4.17;3.77;;;;;;;;;;4976495;28;20212;-80
2021/12/12 04:21:37;;;;;;;4.37;3.83;;;;;;;;;;4974990;28;20274;-79
2021/12/12 04:24:07;;;;;;;3.83;3.43;;;;;;;;;;4974978;28;20228;-80
2021/12/12 04:26:35;;;;;;;5.80;3.77;;;;;;;;;;4968041;28;20220;-80
2021/12/12 04:29:04;;;;;;;5.90;3.90;;;;;;;;;;4974332;28;20266;-80
2021/12/12 04:31:32;;;;;;;5.60;3.67;;;;;;;;;;4962938;28;20291;-80
2021/12/12 04:34:04;;;;;;;5.47;4.03;;;;;;;;;;4974772;28;20228;-78
2021/12/12 04:36:35;;;;;;;4.97;3.20;;;;;;;;;;4968101;28;20254;-79
2021/12/12 04:39:05;;;;;;;4.43;3.83;;;;;;;;;;4974452;28;20196;-79
2021/12/12 04:41:32;;;;;;;3.93;3.50;;;;;;;;;;4974525;28;20231;-80
2021/12/12 04:43:59;;;;;;;4.50;3.40;;;;;;;;;;4975260;28;20231;-82
2021/12/12 04:46:37;;;;;;;5.00;3.47;;;;;;;;;;4975138;28;20227;-79
2021/12/12 04:51:59;;;;;;;5.20;3.70;;;;;;;;;;4967659;28;20323;-80
2021/12/12 04:54:31;;;;;;;4.13;3.40;;;;;;;;;;4975217;28;20196;-79
2021/12/12 04:57:05;;;;;;;4.83;3.50;;;;;;;;;;4975224;28;20230;-81
2021/12/12 04:59:35;;;;;;;4.50;3.67;;;;;;;;;;4968445;28;20309;-79
2021/12/12 05:02:11;;;;;;;4.87;4.00;;;;;;;;;;4968482;28;20250;-78
2021/12/12 05:04:45;;;;;;;5.37;3.90;;;;;;;;;;4974217;28;20212;-80
2021/12/12 05:07:14;;;;;;;5.50;3.80;;;;;;;;;;4974014;28;20251;-78
2021/12/12 05:09:46;;;;;;;4.80;3.87;;;;;;;;;;4973252;28;20203;-79
2021/12/12 05:12:18;;;;;;;7.77;4.17;;;;;;;;;;4974149;28;20239;-77
2021/12/12 05:14:51;;;;;;;4.07;3.67;;;;;;;;;;4973877;28;20239;-80
2021/12/12 05:17:25;;;;;;;4.97;3.90;;;;;;;;;;4974526;28;20231;-80
2021/12/12 05:19:55;;;;;;;4.17;3.67;;;;;;;;;;4972780;28;20211;-79
2021/12/12 05:22:24;;;;;;;4.57;4.10;;;;;;;;;;4974924;28;20308;-79
2021/12/12 05:24:53;;;;;;;4.77;3.97;;;;;;;;;;4975091;28;20224;-80
2021/12/12 05:27:23;;;;;;;5.43;4.13;;;;;;;;;;4974317;28;20287;-79
2021/12/12 05:29:57;;;;;;;5.00;4.50;;;;;;;;;;4975914;28;20251;-79
2021/12/12 05:32:25;;;;;;;6.30;4.50;;;;;;;;;;4973565;28;20224;-79
2021/12/12 05:34:57;;;;;;;6.07;4.73;;;;;;;;;;4975982;28;20243;-80
2021/12/12 05:37:24;;;;;;;5.40;4.63;;;;;;;;;;4976455;28;20200;-79
2021/12/12 05:39:54;;;;;;;6.53;4.90;;;;;;;;;;4974372;28;20246;-79
2021/12/12 05:42:22;;;;;;;6.67;4.80;;;;;;;;;;4974419;28;20228;-79
2021/12/12 05:44:52;;;;;;;5.57;4.70;;;;;;;;;;4976912;28;20270;-79
2021/12/12 05:47:20;;;;;;;5.60;4.50;;;;;;;;;;4974866;28;20228;-81
2021/12/12 05:49:47;;;;;;;4.80;4.37;;;;;;;;;;4974304;28;20597;-79
2021/12/12 05:52:19;;;;;;;5.90;4.83;;;;;;;;;;4973837;28;20288;-80
2021/12/12 05:54:47;;;;;;;4.80;4.30;;;;;;;;;;4973510;28;20266;-79
2021/12/12 05:57:16;;;;;;;5.53;4.50;;;;;;;;;;4973331;28;20243;-78
2021/12/12 05:59:44;;;;;;;6.43;4.57;;;;;;;;;;4973017;28;20239;-78
2021/12/12 06:02:11;;;;;;;5.00;4.27;;;;;;;;;;4976091;28;20207;-80
2021/12/12 06:04:39;;;;;;;4.83;4.30;;;;;;;;;;4976720;28;20223;-79
2021/12/12 06:07:08;;;;;;;5.30;4.33;;;;;;;;;;4976915;28;20220;-80
2021/12/12 06:09:37;;;;;;;5.43;4.73;;;;;;;;;;4974848;28;20214;-80
2021/12/12 06:12:06;;;;;;;4.80;4.40;;;;;;;;;;4974919;28;20208;-80
2021/12/12 06:14:34;;;;;;;6.60;4.63;;;;;;;;;;4970840;28;20232;-78
2021/12/12 06:17:04;;;;;;;5.97;4.43;;;;;;;;;;4976110;28;20284;-79
2021/12/12 06:19:33;;;;;;;4.47;4.07;;;;;;;;;;4975833;28;20295;-79
2021/12/12 06:22:02;;;;;;;6.40;4.93;;;;;;;;;;4977066;28;20204;-80
2021/12/12 06:24:30;;;;;;;4.90;4.40;;;;;;;;;;4976326;28;20247;-82
2021/12/12 06:27:04;;;;;;;5.20;4.70;;;;;;;;;;4977045;28;20287;-83
2021/12/12 06:29:34;;;;;;;5.93;4.47;;;;;;;;;;4976296;28;20220;-80
2021/12/12 06:35:01;;;;;;;6.53;4.63;;;;;;;;;;4973401;28;20271;-76
2021/12/12 06:37:30;;;;;;;5.00;4.40;;;;;;;;;;4978691;28;20227;-79
2021/12/12 06:40:00;;;;;;;4.50;4.10;;;;;;;;;;4979916;28;20219;-80
2021/12/12 06:42:30;;;;;;;4.77;4.33;;;;;;;;;;4979433;28;20254;-80
2021/12/12 06:44:57;;;;;;;5.30;4.30;;;;;;;;;;4984118;28;20266;-80
2021/12/12 06:47:25;;;;;;;5.30;4.60;;;;;;;;;;4988453;28;20229;-81
2021/12/12 06:49:53;;;;;;;5.50;4.47;;;;;;;;;;4980761;28;20263;-81
2021/12/12 06:52:21;;;;;;;4.97;4.20;;;;;;;;;;4980956;28;20266;-80
2021/12/12 06:54:50;;;;;;;7.60;4.37;;;;;;;;;;4984319;28;20246;-80
2021/12/12 06:57:18;;;;;;;5.73;4.87;;;;;;;;;;4984753;28;20231;-79
2021/12/12 06:59:48;;;;;;;5.00;4.50;;;;;;;;;;4985506;28;20202;-80
2021/12/12 07:02:22;;;;;;;4.97;4.47;;;;;;;;;;4980566;28;20223;-80
2021/12/12 07:04:49;;;;;;;6.20;4.90;;;;;;;;;;4979986;28;20204;-81
2021/12/12 07:07:33;;;;;;;7.47;4.83;;;;;;;;;;4980082;28;20258;-80
2021/12/12 07:10:03;;;;;;;6.10;5.00;;;;;;;;;;4974819;28;20199;-80
2021/12/12 07:15:36;;;;;;;5.30;4.80;;;;;;;;;;4967682;28;20538;-80
2021/12/12 07:18:07;;;;;;;5.47;4.80;;;;;;;;;;4965883;28;20204;-80
2021/12/12 07:20:34;;;;;;;5.93;5.33;;;;;;;;;;4967924;28;20268;-80
2021/12/12 07:23:04;;;;;;;7.00;5.10;;;;;;;;;;4971087;28;20243;-75
2021/12/12 07:25:32;;;;;;;7.00;5.67;;;;;;;;;;4969225;28;20228;-80
2021/12/12 07:28:00;;;;;;;6.03;5.30;;;;;;;;;;4970839;28;20223;-79
2021/12/12 07:30:27;;;;;;;7.13;5.97;;;;;;;;;;4968717;28;20207;-79
2021/12/12 07:32:58;;;;;;;6.80;5.27;;;;;;;;;;4965950;28;20294;-79
2021/12/12 07:35:26;;;;;;;5.50;5.00;;;;;;;;;;4966490;28;20690;-79
2021/12/12 07:37:54;;;;;;;5.67;4.77;;;;;;;;;;4967913;28;20212;-79
2021/12/12 07:40:22;;;;;;;5.53;5.03;;;;;;;;;;4972364;28;20203;-80
2021/12/12 07:42:49;;;;;;;5.67;5.00;;;;;;;;;;4972987;28;20240;-79
2021/12/12 07:45:20;;;;;;;7.07;5.77;;;;;;;;;;5057522;23;20230;-82
2021/12/12 07:47:48;;;;;;;5.87;5.33;;;;;;;;;;5047031;28;20228;-82
2021/12/12 07:50:19;;;;;;;5.67;5.07;;;;;;;;;;5045790;28;20256;-82
2021/12/12 07:52:48;;;;;;;6.00;5.40;;;;;;;;;;5046429;28;20248;-82
2021/12/12 07:55:15;;;;;;;5.40;4.90;;;;;;;;;;5036437;28;20226;-83
2021/12/12 07:57:43;;;;;;;5.30;4.80;;;;;;;;;;5036425;28;20202;-82
2021/12/12 08:00:14;;;;;;;5.13;4.63;;;;;;;;;;5028722;28;20226;-83
2021/12/12 08:02:43;;;;;;;5.77;4.40;;;;;;;;;;5023278;28;20207;-83
2021/12/12 08:05:13;;;;;;;4.30;3.90;;;;;;;;;;5022764;28;20234;-83
2021/12/12 08:07:42;;;;;;;4.40;4.00;;;;;;;;;;5022745;28;20264;-82
2021/12/12 08:10:10;;;;;;;4.37;3.97;;;;;;;;;;5020911;28;20291;-82
2021/12/12 08:12:38;;;;;;;3.87;3.47;;;;;;;;;;5022485;28;20294;-80
2021/12/12 08:15:06;;;;;;;3.87;3.57;;;;;;;;;;5017583;28;20326;-80
2021/12/12 08:17:33;;;;;;;3.60;3.30;;;;;;;;;;5016277;28;20257;-80
2021/12/12 08:20:01;;;;;;;4.00;3.40;;;;;;;;;;5016316;28;20297;-81
2021/12/12 08:22:29;;;;;;;3.63;3.33;;;;;;;;;;5016660;28;20294;-80
2021/12/12 08:24:59;;;;;;;2.97;2.70;;;;;;;;;;5018374;28;20289;-80
2021/12/12 08:27:26;;;;;;;3.43;2.90;;;;;;;;;;5018712;28;20222;-80
2021/12/12 08:29:53;;;;;;;3.07;2.77;;;;;;;;;;5017944;28;20241;-80
2021/12/12 08:32:21;;;;;;;2.80;2.60;;;;;;;;;;5020194;28;20199;-80
2021/12/12 08:34:48;;;;;;;2.93;2.73;;;;;;;;;;5019522;28;20317;-80
2021/12/12 08:37:16;;;;;;;3.07;2.87;;;;;;;;;;5015253;28;20275;-79
2021/12/12 08:39:43;;;;;;;3.00;2.70;;;;;;;;;;5012984;28;20301;-79
2021/12/12 08:42:12;;;;;;;3.07;2.77;;;;;;;;;;5009794;28;20270;-79
2021/12/12 08:44:39;;;;;;;3.27;2.97;;;;;;;;;;5012557;28;20599;-81
2021/12/12 08:47:07;;;;;;;2.63;2.43;;;;;;;;;;5013916;28;20306;-80
2021/12/12 08:49:36;;;;;;;2.97;2.63;;;;;;;;;;5013335;28;20269;-79
2021/12/12 08:52:06;;;;;;;2.70;2.50;;;;;;;;;;5014308;28;20233;-79
2021/12/12 08:54:34;;;;;;;2.57;2.37;;;;;;;;;;5022570;28;20234;-79
2021/12/12 08:57:05;;;;;;;2.80;2.60;;;;;;;;;;5016552;28;20203;-80
2021/12/12 08:59:35;;;;;;;2.97;2.60;;;;;;;;;;5016644;28;20210;-79
2021/12/12 09:02:04;;;;;;;2.40;2.20;;;;;;;;;;5017190;28;20230;-79
2021/12/12 09:04:32;;;;;;;3.07;2.33;;;;;;;;;;5018632;28;20241;-79
2021/12/12 09:07:01;;;;;;;2.80;2.60;;;;;;;;;;5018967;28;20225;-80
2021/12/12 09:09:31;;;;;;;3.83;2.60;;;;;;;;;;5021810;28;20214;-79
2021/12/12 09:12:02;;;;;;;2.43;2.20;;;;;;;;;;5018573;28;20281;-79
2021/12/12 09:14:32;;;;;;;2.30;2.10;;;;;;;;;;5017063;28;20249;-79
2021/12/12 09:17:05;;;;;;;2.67;2.30;;;;;;;;;;5015082;28;20211;-78
2021/12/12 09:19:36;;;;;;;2.87;2.67;;;;;;;;;;5011766;28;20289;-84
2021/12/12 09:22:05;;;;;;;3.43;2.40;;;;;;;;;;5021218;28;20218;-81
2021/12/12 09:24:44;;;;;;;2.13;2.00;;;;;;;;;;5016156;28;20254;-80
2021/12/12 09:27:12;;;;;;;2.40;2.20;;;;;;;;;;5012581;28;20206;-84
2021/12/12 09:29:42;;;;;;;2.17;2.00;;;;;;;;;;5014727;28;20207;-79
2021/12/12 09:32:12;;;;;;;2.30;2.10;;;;;;;;;;5018143;28;20309;-79
2021/12/12 09:34:42;;;;;;;2.10;1.90;;;;;;;;;;5017399;28;20222;-82
2021/12/12 09:37:11;;;;;;;2.43;2.23;;;;;;;;;;5024791;28;20282;-80
2021/12/12 09:39:39;;;;;;;2.40;2.20;;;;;;;;;;5020143;28;20274;-81
2021/12/12 09:42:17;;;;;;;2.43;2.23;;;;;;;;;;5018608;28;20616;-79
2021/12/12 09:44:52;;;;;;;2.63;2.40;;;;;;;;;;5022061;28;20299;-79
2021/12/12 09:47:36;;;;;;;2.77;2.53;;;;;;;;;;5028474;28;20309;-79
2021/12/12 09:53:13;;;;;;;2.60;2.20;;;;;;;;;;5024294;28;20185;-80
2021/12/12 09:55:47;;;;;;;4.33;2.60;;;;;;;;;;5025415;28;20222;-83
2021/12/12 09:58:23;;;;;;;2.37;2.10;;;;;;;;;;5023085;28;20210;-84
2021/12/12 10:00:54;;;;;;;2.33;2.13;;;;;;;;;;5029164;28;20225;-83
2021/12/12 10:03:24;;;;;;;1.73;1.63;;;;;;;;;;5028211;28;20207;-84
2021/12/12 10:05:55;;;;;;;1.83;1.73;;;;;;;;;;5029017;28;20219;-83
2021/12/12 10:08:28;;;;;;;2.63;2.03;;;;;;;;;;5029354;28;20253;-83
2021/12/12 10:10:59;;;;;;;3.47;2.30;;;;;;;;;;5028358;28;20203;-82
2021/12/12 10:13:30;;;;;;;2.23;1.90;;;;;;;;;;5034807;28;20284;-85
2021/12/12 10:15:59;;;;;;;1.70;1.60;;;;;;;;;;5028563;28;20649;-82
2021/12/12 10:18:31;;;;;;;2.67;2.13;;;;;;;;;;5030362;28;20293;-83
2021/12/12 10:21:04;;;;;;;3.33;2.20;;;;;;;;;;5025699;28;20306;-83
2021/12/12 10:23:40;;;;;;;3.43;1.93;;;;;;;;;;5031684;28;20218;-82
2021/12/12 10:26:10;;;;;;;2.47;1.87;;;;;;;;;;5026965;28;20237;-83
2021/12/12 10:28:43;;;;;;;1.90;1.80;;;;;;;;;;5028653;28;20218;-83
2021/12/12 10:31:15;;;;;;;2.10;1.90;;;;;;;;;;5027586;28;20229;-82
2021/12/12 10:33:47;;;;;;;2.43;2.00;;;;;;;;;;5029225;28;20297;-82
2021/12/12 10:36:17;;;;;;;1.83;1.73;;;;;;;;;;5026901;28;20206;-82
2021/12/12 10:38:47;;;;;;;2.13;1.93;;;;;;;;;;5026983;28;20270;-81
2021/12/12 10:41:18;;;;;;;2.77;1.90;;;;;;;;;;5027226;28;20202;-82
2021/12/12 10:43:47;;;;;;;2.10;1.90;;;;;;;;;;5030493;28;20223;-83
2021/12/12 10:46:19;;;;;;;2.90;1.80;;;;;;;;;;5027460;28;20210;-83
2021/12/12 10:48:57;;;;;;;3.57;2.00;;;;;;;;;;5029201;28;20221;-84
2021/12/12 10:51:26;;;;;;;2.83;1.70;;;;;;;;;;5022155;28;20236;-84
2021/12/12 10:54:01;;;;;;;2.37;1.67;;;;;;;;;;5022877;28;20227;-82
2021/12/12 10:56:37;;;;;;;2.10;1.90;;;;;;;;;;5027720;28;20202;-81
2021/12/12 10:59:05;;;;;;;3.13;1.80;;;;;;;;;;5026914;28;20252;-81
2021/12/12 11:01:34;;;;;;;2.40;1.93;;;;;;;;;;5019614;28;20233;-82
2021/12/12 11:04:13;;;;;;;2.70;2.20;;;;;;;;;;5027975;28;20226;-83
2021/12/12 11:06:42;;;;;;;2.40;2.13;;;;;;;;;;5025556;28;20568;-83
2021/12/12 11:09:15;;;;;;;2.10;1.90;;;;;;;;;;5024999;28;20305;-82
2021/12/12 11:11:45;;;;;;;2.00;1.80;;;;;;;;;;5025412;28;20190;-83
2021/12/12 11:14:16;;;;;;;2.10;1.90;;;;;;;;;;5021679;28;20263;-83
2021/12/12 11:16:59;;;;;;;1.80;1.70;;;;;;;;;;5025988;28;20249;-84
2021/12/12 11:19:32;;;;;;;2.10;1.90;;;;;;;;;;5014782;28;20206;-83
2021/12/12 11:22:02;;;;;;;1.80;1.70;;;;;;;;;;5022561;28;20218;-82
2021/12/12 11:24:31;;;;;;;1.70;1.53;;;;;;;;;;5019837;28;20254;-82
2021/12/12 11:27:01;;;;;;;2.17;1.77;;;;;;;;;;5021061;28;20207;-85
2021/12/12 11:29:33;;;;;;;3.57;1.90;;;;;;;;;;5018556;28;20258;-81
2021/12/12 11:32:03;;;;;;;3.43;1.40;;;;;;;;;;5023464;28;20205;-85
2021/12/12 11:34:32;;;;;;;3.07;1.80;;;;;;;;;;5017908;28;20219;-83
2021/12/12 11:37:06;;;;;;;1.80;1.70;;;;;;;;;;5023372;28;20662;-82
2021/12/12 11:39:36;;;;;;;3.17;1.80;;;;;;;;;;5016636;28;20253;-82
2021/12/12 11:42:05;;;;;;;3.10;1.90;;;;;;;;;;5017811;28;20206;-82
2021/12/12 11:44:34;;;;;;;1.77;1.67;;;;;;;;;;5018957;28;20227;-82
2021/12/12 11:47:07;;;;;;;2.50;1.60;;;;;;;;;;5012959;28;20195;-82
2021/12/12 11:49:42;;;;;;;2.03;1.73;;;;;;;;;;5016016;28;20218;-81
2021/12/12 11:52:12;;;;;;;1.77;1.50;;;;;;;;;;5014589;28;20190;-82
2021/12/12 11:54:42;;;;;;;1.77;1.60;;;;;;;;;;5017390;28;20294;-81
2021/12/12 11:57:14;;;;;;;1.77;1.47;;;;;;;;;;5012971;28;20233;-82
2021/12/12 11:59:45;;;;;;;2.50;2.10;;;;;;;;;;5017128;28;20232;-80
2021/12/12 12:02:31;;;;;;;1.70;1.60;;;;;;;;;;5017526;28;20245;-82
2021/12/12 12:05:05;;;;;;;2.53;1.57;;;;;;;;;;5014821;28;20230;-82
2021/12/12 12:07:41;;;;;;;3.50;1.80;;;;;;;;;;5014329;28;20218;-79
2021/12/12 12:10:11;;;;;;;2.53;1.97;;;;;;;;;;5015268;28;20232;-82
2021/12/12 12:12:54;;;;;;;1.93;1.73;;;;;;;;;;5018449;28;20225;-79
2021/12/12 12:15:23;;;;;;;2.20;2.00;;;;;;;;;;5023181;28;20281;-82
2021/12/12 12:18:03;;;;;;;3.33;2.17;;;;;;;;;;5016202;28;20203;-81
2021/12/12 12:20:37;;;;;;;3.17;2.10;;;;;;;;;;5015181;28;20218;-83
2021/12/12 12:23:16;;;;;;;2.37;1.90;;;;;;;;;;5027933;28;20238;-83
2021/12/12 12:28:36;;;;;;;2.43;1.70;;;;;;;;;;4981406;28;20600;-81
2021/12/12 12:31:24;;;;;;;4.07;2.10;;;;;;;;;;5020919;28;20221;-81
2021/12/12 12:34:17;;;;;;;2.93;1.90;;;;;;;;;;5020744;28;20222;-85
2021/12/12 12:37:02;;;;;;;2.13;1.70;;;;;;;;;;5017074;28;20275;-85
2021/12/12 12:40:03;;;;;;;2.07;1.93;;;;;;;;;;5020010;28;20202;-84
2021/12/12 12:42:48;;;;;;;2.50;1.97;;;;;;;;;;5020108;28;20198;-82
2021/12/12 12:45:36;;;;;;;2.70;1.83;;;;;;;;;;4992879;28;20258;-81
2021/12/12 12:48:21;;;;;;;2.40;2.00;;;;;;;;;;5015471;28;20226;-80
2021/12/12 12:51:01;;;;;;;2.83;1.83;;;;;;;;;;5017824;28;20221;-84
2021/12/12 12:53:50;;;;;;;2.40;2.03;;;;;;;;;;5014921;28;20467;-80
2021/12/12 12:56:46;;;;;;;2.40;2.10;;;;;;;;;;5010208;28;20214;-82
2021/12/12 12:59:25;;;;;;;2.20;1.97;;;;;;;;;;5010523;28;20214;-82
2021/12/12 13:01:59;;;;;;;2.30;1.87;;;;;;;;;;5011505;28;20270;-82
2021/12/12 13:04:28;;;;;;;2.63;1.80;;;;;;;;;;5016657;28;20223;-82
2021/12/12 13:07:09;;;;;;;2.30;2.10;;;;;;;;;;5011468;28;20222;-82
2021/12/12 13:09:42;;;;;;;2.30;1.97;;;;;;;;;;5007973;28;20220;-86
2021/12/12 13:12:28;;;;;;;2.40;1.93;;;;;;;;;;5015671;28;20268;-81
2021/12/12 13:15:02;;;;;;;2.77;2.10;;;;;;;;;;5016585;28;20318;-81
2021/12/12 13:17:41;;;;;;;1.87;1.77;;;;;;;;;;5012324;28;20274;-80
2021/12/12 13:20:21;;;;;;;5.83;2.13;;;;;;;;;;5012060;28;20202;-81
2021/12/12 13:22:53;;;;;;;2.60;1.90;;;;;;;;;;5013511;28;20257;-81
2021/12/12 13:25:22;;;;;;;2.30;1.80;;;;;;;;;;5016110;28;20246;-82
2021/12/12 13:28:03;;;;;;;4.13;2.10;;;;;;;;;;5021471;28;20304;-81
2021/12/12 13:30:41;;;;;;;2.57;1.90;;;;;;;;;;5015894;28;20224;-80
2021/12/12 13:33:12;;;;;;;1.80;1.70;;;;;;;;;;5017829;28;20289;-84
2021/12/12 13:35:42;;;;;;;2.80;1.97;;;;;;;;;;5021021;28;20265;-84
2021/12/12 13:38:14;;;;;;;2.23;1.83;;;;;;;;;;5022605;28;20203;-80
2021/12/12 13:40:42;;;;;;;2.23;1.90;;;;;;;;;;5025360;28;20206;-81
2021/12/12 13:43:19;;;;;;;2.83;1.77;;;;;;;;;;5023982;28;20272;-83
2021/12/12 13:45:51;;;;;;;2.33;1.70;;;;;;;;;;5041880;23;20234;-79
2021/12/12 13:48:24;;;;;;;2.90;1.80;;;;;;;;;;5007402;28;20207;-78
2021/12/12 13:50:55;;;;;;;3.80;2.20;;;;;;;;;;5003046;28;20196;-79
2021/12/12 13:53:33;;;;;;;2.70;1.97;;;;;;;;;;5012232;28;20667;-78
2021/12/12 13:56:16;;;;;;;3.03;1.90;;;;;;;;;;5013612;28;20226;-79
2021/12/12 13:58:55;;;;;;;2.90;2.10;;;;;;;;;;5022855;28;20326;-78
2021/12/12 14:01:46;;;;;;;;;;;;;;;;;;;;;
2021/12/12 14:04:19;;;;;;;3.13;2.30;;;;;;;;;;5021517;28;20263;-81
2021/12/12 14:06:52;;;;;;;3.17;2.30;;;;;;;;;;5023408;28;20238;-81
2021/12/12 14:09:24;;;;;;;2.93;2.20;;;;;;;;;;5017190;28;20265;-83
2021/12/12 14:11:59;;;;;;;4.47;3.00;;;;;;;;;;5015764;28;20202;-83
2021/12/12 14:14:29;;;;;;;3.13;2.77;;;;;;;;;;5018192;28;20218;-82
2021/12/12 14:17:01;;;;;;;2.73;2.20;;;;;;;;;;5015685;28;20227;-83
2021/12/12 14:19:34;;;;;;;5.47;2.57;;;;;;;;;;5017273;28;20213;-81
2021/12/12 14:25:18;;;;;;;2.20;2.00;;;;;;;;;;5015586;28;20226;-82
2021/12/12 14:27:51;;;;;;;3.53;2.27;;;;;;;;;;5018596;28;20197;-85
2021/12/12 14:30:20;;;;;;;3.27;2.47;;;;;;;;;;5016758;28;20238;-82
2021/12/12 14:32:53;;;;;;;2.80;2.40;;;;;;;;;;5023073;28;20206;-81
2021/12/12 14:38:00;;;;;;;4.10;3.00;;;;;;;;;;5016373;28;20206;-87
2021/12/12 14:40:35;;;;;;;3.17;2.50;;;;;;;;;;5016671;28;20206;-82
2021/12/12 14:43:05;;;;;;;3.17;2.63;;;;;;;;;;5017757;28;20220;-81
2021/12/12 14:45:40;;;;;;;3.27;2.53;;;;;;;;;;5005586;28;20262;-83
2021/12/12 14:48:12;;;;;;;3.63;2.80;;;;;;;;;;4991444;28;20215;-84
2021/12/12 14:50:46;;;;;;;3.03;2.73;;;;;;;;;;4997409;28;20236;-84
2021/12/12 14:53:14;;;;;;;4.67;2.50;;;;;;;;;;4996018;28;20226;-83
2021/12/12 14:55:47;;;;;;;4.90;2.53;;;;;;;;;;5062400;23;20238;-83
2021/12/12 14:58:19;;;;;;;2.83;2.60;;;;;;;;;;5035460;28;20209;-82
2021/12/12 15:00:53;;;;;;;7.07;3.40;;;;;;;;;;5035476;28;20190;-83
2021/12/12 15:03:22;;;;;;;3.93;3.53;;;;;;;;;;5038535;28;20202;-85
2021/12/12 15:05:52;;;;;;;3.33;3.03;;;;;;;;;;5040075;28;20214;-83
2021/12/12 15:08:21;;;;;;;3.80;3.03;;;;;;;;;;5037829;28;20292;-83
2021/12/12 15:10:55;;;;;;;3.33;2.87;;;;;;;;;;5033213;28;20569;-84
2021/12/12 15:13:26;;;;;;;3.37;2.90;;;;;;;;;;5037300;28;20202;-84
2021/12/12 15:15:58;;;;;;;3.17;2.70;;;;;;;;;;5032022;28;20210;-83
2021/12/12 15:18:39;;;;;;;3.13;2.73;;;;;;;;;;5032821;28;20234;-84
2021/12/12 15:21:09;;;;;;;3.73;2.40;;;;;;;;;;5038119;28;20214;-84
2021/12/12 15:23:39;;;;;;;3.80;2.67;;;;;;;;;;5034640;28;20259;-84
2021/12/12 15:26:14;;;;;;;4.67;3.47;;;;;;;;;;5031011;28;20264;-84
2021/12/12 15:28:45;;;;;;;3.03;2.70;;;;;;;;;;5039913;28;20201;-84
2021/12/12 15:31:17;;;;;;;3.90;2.80;;;;;;;;;;5025523;28;20230;-83
2021/12/12 15:33:52;;;;;;;3.27;2.93;;;;;;;;;;5038347;28;20228;-85
2021/12/12 15:36:25;;;;;;;3.53;3.20;;;;;;;;;;5030723;28;20244;-83
2021/12/12 15:38:53;;;;;;;3.13;2.83;;;;;;;;;;5023439;28;20278;-85